Time;durP1;ratioP1;P1;durP2;ratioP2;P2;SDS_P1;SDS_P2;PMS_P1;PMS_P2;Temp;Humidity;BMP_temperature;BMP_pressure;BME280_temperature;BME280_humidity;BME280_pressure;Samples;Min_cycle;Max_cycle;Signal;HPM_P1;HPM_P2
2021/05/02 00:00:21;;;;;;;7.70;6.85;;;8.60;99.90;;;;;;4973463;28;20078;-64
2021/05/02 00:02:47;;;;;;;7.88;7.07;;;8.50;99.90;;;;;;4963480;28;20081;-64
2021/05/02 00:05:15;;;;;;;7.82;7.25;;;8.70;99.90;;;;;;4973238;28;20039;-64
2021/05/02 00:07:41;;;;;;;7.75;6.90;;;8.40;99.90;;;;;;4966637;28;20034;-64
2021/05/02 00:10:09;;;;;;;8.35;7.63;;;8.50;99.90;;;;;;4973042;28;20042;-64
2021/05/02 00:12:36;;;;;;;7.53;7.03;;;8.50;99.90;;;;;;4966975;28;20046;-64
2021/05/02 00:15:03;;;;;;;10.40;7.55;;;8.50;99.90;;;;;;4973301;28;20442;-64
2021/05/02 00:17:29;;;;;;;8.27;7.53;;;8.30;99.90;;;;;;4966666;28;20549;-64
2021/05/02 00:19:57;;;;;;;8.20;7.60;;;8.30;99.90;;;;;;4973062;28;20031;-64
2021/05/02 00:22:22;;;;;;;8.60;8.00;;;8.10;99.90;;;;;;4965483;28;20042;-64
2021/05/02 00:24:49;;;;;;;10.88;7.30;;;8.20;99.90;;;;;;4972962;28;20031;-64
2021/05/02 00:27:15;;;;;;;12.20;6.65;;;8.10;99.90;;;;;;4962857;28;20159;-64
2021/05/02 00:29:42;;;;;;;7.60;6.93;;;8.10;99.90;;;;;;4972963;28;20100;-64
2021/05/02 00:32:08;;;;;;;8.98;6.57;;;8.10;99.90;;;;;;4967772;28;20031;-64
2021/05/02 00:34:35;;;;;;;7.88;7.25;;;8.00;99.90;;;;;;4970944;28;20023;-64
2021/05/02 00:37:03;;;;;;;7.80;7.20;;;8.00;99.90;;;;;;4965588;28;20034;-64
2021/05/02 00:39:29;;;;;;;7.25;6.65;;;8.00;99.90;;;;;;4972638;28;20058;-63
2021/05/02 00:41:58;;;;;;;7.35;6.85;;;8.00;99.90;;;;;;4967544;28;20105;-64
2021/05/02 00:44:33;;;;;;;7.38;6.65;;;7.90;99.90;;;;;;4967827;28;20045;-64
2021/05/02 00:47:33;;;;;;;8.55;7.70;;;7.80;99.90;;;;;;4966433;28;20473;-64
2021/05/02 00:50:09;;;;;;;14.02;8.25;;;7.70;99.90;;;;;;4972480;28;20611;-64
2021/05/02 00:52:35;;;;;;;;;;;7.50;99.90;;;;;;4963812;28;20035;-64
2021/05/02 00:55:08;;;;;;;8.40;7.72;;;7.60;99.90;;;;;;4970942;28;19906;-64
2021/05/02 00:57:54;;;;;;;10.38;8.60;;;7.70;99.90;;;;;;4964225;28;20395;-64
2021/05/02 01:00:20;;;;;;;9.45;8.48;;;7.70;99.90;;;;;;4967596;28;20073;-64
2021/05/02 01:02:52;;;;;;;7.80;7.30;;;7.70;99.90;;;;;;4981050;28;20027;-64
2021/05/02 01:05:19;;;;;;;8.20;7.40;;;7.60;99.90;;;;;;4972333;28;20031;-64
2021/05/02 01:07:45;;;;;;;8.38;7.00;;;7.60;99.90;;;;;;4965913;28;20019;-64
2021/05/02 01:10:15;;;;;;;9.07;7.38;;;7.40;99.90;;;;;;4972179;28;20528;-64
2021/05/02 01:12:45;;;;;;;7.90;7.15;;;7.40;99.90;;;;;;4965993;28;20488;-64
2021/05/02 01:15:23;;;;;;;8.13;7.43;;;7.40;99.90;;;;;;4972375;28;20372;-64
2021/05/02 01:18:08;;;;;;;8.70;7.90;;;7.60;99.90;;;;;;4966795;28;20023;-64
2021/05/02 01:20:41;;;;;;;7.50;6.75;;;7.60;99.90;;;;;;4970745;28;20050;-64
2021/05/02 01:23:10;;;;;;;8.75;7.70;;;7.60;99.90;;;;;;4964978;28;20026;-64
2021/05/02 01:25:37;;;;;;;7.60;7.10;;;7.50;99.90;;;;;;4971183;28;20373;-64
2021/05/02 01:28:04;;;;;;;10.15;6.68;;;7.40;99.90;;;;;;4963198;28;20570;-64
2021/05/02 01:30:30;;;;;;;9.43;7.68;;;7.20;99.90;;;;;;4971491;28;20467;-64
2021/05/02 01:32:56;;;;;;;8.60;7.90;;;7.20;99.90;;;;;;4961112;28;20019;-64
2021/05/02 01:35:22;;;;;;;8.45;7.75;;;7.40;99.90;;;;;;4971729;28;20027;-64
2021/05/02 01:37:50;;;;;;;7.90;7.10;;;7.30;99.90;;;;;;4966705;28;20034;-64
2021/05/02 01:40:18;;;;;;;8.65;7.78;;;7.30;99.90;;;;;;4971770;28;20019;-64
2021/05/02 01:42:45;;;;;;;10.82;7.60;;;7.30;99.90;;;;;;4965351;28;20027;-64
2021/05/02 01:45:11;;;;;;;8.18;7.35;;;7.20;99.90;;;;;;4971654;28;20022;-64
2021/05/02 01:47:58;;;;;;;9.60;7.32;;;7.00;99.90;;;;;;4961019;28;20043;-64
2021/05/02 01:50:26;;;;;;;13.00;7.88;;;7.10;99.90;;;;;;4971177;28;20030;-64
2021/05/02 01:52:53;;;;;;;8.15;7.07;;;7.10;99.90;;;;;;4968018;28;20093;-64
2021/05/02 01:55:19;;;;;;;12.38;7.20;;;7.10;99.90;;;;;;4971369;28;20411;-64
2021/05/02 01:57:47;;;;;;;9.05;8.05;;;6.80;99.90;;;;;;4966909;28;20030;-63
2021/05/02 02:00:25;;;;;;;9.32;8.60;;;6.60;99.90;;;;;;4970932;28;20023;-64
2021/05/02 02:02:51;;;;;;;9.23;8.35;;;6.60;99.90;;;;;;4965638;28;20395;-64
2021/05/02 02:05:22;;;;;;;13.65;9.00;;;6.50;99.90;;;;;;4970514;28;20027;-64
2021/05/02 02:07:48;;;;;;;9.90;8.55;;;6.30;99.90;;;;;;4963904;28;20105;-64
2021/05/02 02:10:19;;;;;;;9.82;7.80;;;6.70;99.90;;;;;;4967207;28;20133;-64
2021/05/02 02:12:46;;;;;;;9.38;8.05;;;6.70;99.90;;;;;;4960527;28;20027;-64
2021/05/02 02:15:13;;;;;;;8.48;7.65;;;6.70;99.90;;;;;;4971184;28;20026;-64
2021/05/02 02:17:39;;;;;;;8.60;7.70;;;6.60;99.90;;;;;;4964556;28;20046;-64
2021/05/02 02:20:06;;;;;;;8.50;7.88;;;6.70;99.90;;;;;;4970994;28;20019;-64
2021/05/02 02:22:41;;;;;;;8.43;7.60;;;6.60;99.90;;;;;;4961562;28;20034;-64
2021/05/02 02:25:09;;;;;;;10.60;8.00;;;6.80;99.90;;;;;;4959002;28;20065;-64
2021/05/02 02:27:35;;;;;;;7.97;7.28;;;6.60;99.90;;;;;;4960695;28;20031;-64
2021/05/02 02:30:05;;;;;;;8.73;7.65;;;6.60;99.90;;;;;;4970660;28;20069;-64
2021/05/02 02:32:33;;;;;;;9.07;7.72;;;6.60;99.90;;;;;;4968831;28;20093;-64
2021/05/02 02:34:59;;;;;;;8.48;7.63;;;6.60;99.90;;;;;;4969483;28;20177;-64
2021/05/02 02:37:27;;;;;;;11.85;7.13;;;6.50;99.90;;;;;;4967339;28;20673;-64
2021/05/02 02:40:00;;;;;;;8.98;8.23;;;6.60;99.90;;;;;;4968810;28;20019;-64
2021/05/02 02:42:28;;;;;;;8.25;7.53;;;6.60;99.90;;;;;;4967138;28;20506;-64
2021/05/02 02:44:59;;;;;;;11.15;7.82;;;6.50;99.90;;;;;;4969745;28;20019;-64
2021/05/02 02:47:32;;;;;;;8.77;7.97;;;6.60;99.90;;;;;;4968110;28;20118;-64
2021/05/02 02:49:59;;;;;;;9.63;7.43;;;6.50;99.90;;;;;;4974733;28;20065;-64
2021/05/02 02:52:27;;;;;;;10.93;7.70;;;6.60;99.90;;;;;;4968328;28;20042;-64
2021/05/02 02:55:06;;;;;;;8.57;7.18;;;6.60;99.90;;;;;;4974400;28;20027;-64
2021/05/02 02:57:40;;;;;;;8.80;7.65;;;6.70;99.90;;;;;;4968706;28;20425;-64
2021/05/02 03:00:07;;;;;;;8.30;7.63;;;6.60;99.90;;;;;;4970557;28;20023;-64
2021/05/02 03:02:36;;;;;;;14.55;8.75;;;6.70;99.90;;;;;;4968222;28;20411;-64
2021/05/02 03:05:04;;;;;;;11.02;8.23;;;6.60;99.90;;;;;;4968678;28;20026;-64
2021/05/02 03:07:32;;;;;;;9.52;8.52;;;6.70;99.90;;;;;;4967810;28;20035;-64
2021/05/02 03:09:59;;;;;;;7.88;7.25;;;6.50;99.90;;;;;;4974162;28;20124;-64
2021/05/02 03:12:25;;;;;;;9.18;8.48;;;6.70;99.90;;;;;;4968021;28;20097;-64
2021/05/02 03:14:53;;;;;;;11.38;7.72;;;6.70;99.90;;;;;;4974281;28;20015;-64
2021/05/02 03:17:28;;;;;;;14.13;8.18;;;6.70;99.90;;;;;;4972167;28;20042;-64
2021/05/02 03:20:10;;;;;;;8.75;7.55;;;6.60;99.90;;;;;;4973318;28;20019;-64
2021/05/02 03:22:49;;;;;;;8.85;7.90;;;6.60;99.90;;;;;;4967472;28;20015;-64
2021/05/02 03:25:21;;;;;;;9.32;7.82;;;6.50;99.90;;;;;;4961932;28;20023;-64
2021/05/02 03:27:53;;;;;;;10.73;6.95;;;6.60;99.90;;;;;;4964883;28;20085;-64
2021/05/02 03:30:22;;;;;;;10.30;6.85;;;6.80;99.90;;;;;;4974090;28;20114;-64
2021/05/02 03:32:50;;;;;;;9.23;7.65;;;6.80;99.90;;;;;;4970278;28;20034;-64
2021/05/02 03:35:18;;;;;;;9.55;8.30;;;6.60;99.90;;;;;;4971739;28;20487;-64
2021/05/02 03:37:59;;;;;;;8.85;7.75;;;6.50;99.90;;;;;;4967116;28;20034;-64
2021/05/02 03:40:25;;;;;;;7.20;6.70;;;6.60;99.90;;;;;;4974036;28;20093;-64
2021/05/02 03:42:51;;;;;;;8.30;7.20;;;6.60;99.90;;;;;;4962585;28;20027;-64
2021/05/02 03:45:17;;;;;;;9.70;8.77;;;6.40;99.90;;;;;;4973794;28;20563;-64
2021/05/02 03:47:42;;;;;;;8.32;7.25;;;6.50;99.90;;;;;;4962992;28;20106;-64
2021/05/02 03:50:09;;;;;;;8.10;7.30;;;6.40;99.90;;;;;;4973957;28;20043;-64
2021/05/02 03:52:34;;;;;;;7.55;6.95;;;6.40;99.90;;;;;;4962870;28;20031;-64
2021/05/02 03:55:00;;;;;;;8.02;7.43;;;6.50;99.90;;;;;;4973070;28;20396;-64
2021/05/02 03:57:25;;;;;;;8.32;7.30;;;6.50;99.90;;;;;;4970104;28;20027;-64
2021/05/02 03:59:51;;;;;;;9.07;7.95;;;6.60;99.90;;;;;;4970892;28;20034;-64
2021/05/02 04:02:17;;;;;;;9.35;8.00;;;6.50;99.90;;;;;;4969452;28;20023;-64
2021/05/02 04:04:45;;;;;;;10.73;7.32;;;6.30;99.90;;;;;;4973447;28;20686;-64
2021/05/02 04:07:12;;;;;;;8.15;7.45;;;6.40;99.90;;;;;;4965605;28;20484;-64
2021/05/02 04:09:42;;;;;;;9.23;8.50;;;6.30;99.90;;;;;;4969766;28;20078;-64
2021/05/02 04:12:09;;;;;;;11.27;7.90;;;6.50;99.90;;;;;;4971325;28;20046;-64
2021/05/02 04:14:35;;;;;;;8.77;7.88;;;6.40;99.90;;;;;;4972204;28;20475;-64
2021/05/02 04:17:05;;;;;;;8.93;8.02;;;6.30;99.90;;;;;;4970099;28;20054;-64
2021/05/02 04:19:35;;;;;;;13.18;8.02;;;6.50;99.90;;;;;;4971320;28;20487;-65
2021/05/02 04:22:02;;;;;;;8.27;7.65;;;6.50;99.90;;;;;;4968533;28;20353;-64
2021/05/02 04:24:28;;;;;;;8.43;7.78;;;6.40;99.90;;;;;;4970462;28;20034;-65
2021/05/02 04:26:55;;;;;;;11.10;8.07;;;6.30;99.90;;;;;;4968344;28;20049;-64
2021/05/02 04:29:26;;;;;;;8.00;7.30;;;6.40;99.90;;;;;;4968303;28;20023;-64
2021/05/02 04:31:53;;;;;;;11.55;7.25;;;6.20;99.90;;;;;;4969510;28;20034;-64
2021/05/02 04:34:19;;;;;;;8.65;7.90;;;6.30;99.90;;;;;;4967312;28;20023;-64
2021/05/02 04:36:46;;;;;;;8.27;7.47;;;6.20;99.90;;;;;;4957095;28;20035;-65
2021/05/02 04:39:11;;;;;;;8.02;7.32;;;6.10;99.90;;;;;;4968456;28;20542;-64
2021/05/02 04:41:37;;;;;;;8.45;7.53;;;6.30;99.90;;;;;;4957831;28;20039;-64
2021/05/02 04:44:03;;;;;;;7.25;6.65;;;6.20;99.90;;;;;;4965867;28;20038;-64
2021/05/02 04:46:29;;;;;;;8.82;7.68;;;6.10;99.90;;;;;;4966826;28;20625;-64
2021/05/02 04:48:55;;;;;;;9.00;6.80;;;6.00;99.90;;;;;;4959060;28;20124;-65
2021/05/02 04:51:21;;;;;;;10.48;7.88;;;6.10;99.90;;;;;;4966286;28;20484;-64
2021/05/02 04:53:47;;;;;;;8.05;7.35;;;6.10;99.90;;;;;;4958363;28;20027;-65
2021/05/02 04:56:13;;;;;;;8.30;7.57;;;6.00;99.90;;;;;;4962262;28;20035;-65
2021/05/02 04:58:40;;;;;;;8.07;7.13;;;6.10;99.90;;;;;;4955115;28;20042;-65
2021/05/02 05:01:06;;;;;;;8.05;7.32;;;6.00;99.90;;;;;;4953398;28;20019;-65
2021/05/02 05:03:32;;;;;;;12.40;7.75;;;6.00;99.90;;;;;;4966310;28;20038;-65
2021/05/02 05:05:58;;;;;;;8.80;7.72;;;6.00;99.90;;;;;;4969150;28;20023;-65
2021/05/02 05:08:24;;;;;;;10.38;9.10;;;5.90;99.90;;;;;;4966472;28;20499;-65
2021/05/02 05:10:50;;;;;;;12.57;9.88;;;6.00;99.90;;;;;;4965335;28;20456;-65
2021/05/02 05:13:15;;;;;;;9.93;8.98;;;6.00;99.90;;;;;;4957977;28;20030;-65
2021/05/02 05:15:41;;;;;;;10.27;9.27;;;6.00;99.90;;;;;;4968150;28;20031;-64
2021/05/02 05:18:07;;;;;;;10.85;9.00;;;6.00;99.90;;;;;;4958903;28;20027;-65
2021/05/02 05:20:32;;;;;;;9.73;8.82;;;5.90;99.90;;;;;;4957907;28;20106;-64
2021/05/02 05:22:58;;;;;;;16.60;8.63;;;5.80;99.90;;;;;;4959530;28;20457;-64
2021/05/02 05:25:24;;;;;;;16.35;8.93;;;6.00;99.90;;;;;;4962092;28;20415;-64
2021/05/02 05:27:49;;;;;;;9.30;8.43;;;5.90;99.90;;;;;;4956623;28;20400;-64
2021/05/02 05:30:16;;;;;;;13.20;9.35;;;6.00;99.90;;;;;;4964007;28;20031;-64
2021/05/02 05:32:41;;;;;;;8.63;7.93;;;5.90;99.90;;;;;;4958037;28;20031;-65
2021/05/02 05:35:08;;;;;;;10.57;8.10;;;6.10;99.90;;;;;;4951908;28;20042;-65
2021/05/02 05:37:33;;;;;;;10.15;7.53;;;6.10;99.90;;;;;;4961800;28;20491;-67
2021/05/02 05:39:59;;;;;;;14.82;9.73;;;7.10;99.90;;;;;;4971721;28;20030;-67
2021/05/02 05:42:25;;;;;;;10.80;9.15;;;6.50;99.90;;;;;;4965387;28;20026;-67
2021/05/02 05:44:50;;;;;;;9.68;8.68;;;6.40;99.90;;;;;;4971646;28;20555;-66
2021/05/02 05:47:17;;;;;;;9.48;8.75;;;6.40;99.90;;;;;;4965357;28;20031;-67
2021/05/02 05:49:42;;;;;;;12.23;9.40;;;6.30;99.90;;;;;;4971647;28;20106;-67
2021/05/02 05:52:09;;;;;;;11.05;8.40;;;6.40;99.90;;;;;;4965528;28;20181;-68
2021/05/02 05:54:36;;;;;;;10.68;8.95;;;6.40;99.90;;;;;;4971212;28;20061;-67
2021/05/02 05:57:02;;;;;;;10.68;9.75;;;6.40;99.90;;;;;;4965269;28;20053;-67
2021/05/02 05:59:28;;;;;;;12.02;10.13;;;6.50;99.90;;;;;;4971337;28;20673;-67
2021/05/02 06:01:54;;;;;;;12.55;10.00;;;6.50;99.90;;;;;;4965076;28;20024;-67
2021/05/02 06:04:19;;;;;;;13.50;10.82;;;6.50;99.90;;;;;;4969964;28;20031;-67
2021/05/02 06:06:45;;;;;;;13.93;10.73;;;6.60;99.90;;;;;;4964841;28;20107;-67
2021/05/02 06:09:11;;;;;;;21.70;9.88;;;6.60;99.90;;;;;;4958922;28;20073;-67
2021/05/02 06:11:37;;;;;;;15.45;10.88;;;6.80;99.90;;;;;;4961342;28;20047;-67
2021/05/02 06:14:05;;;;;;;14.07;10.25;;;6.80;99.90;;;;;;4952250;28;20102;-67
2021/05/02 06:16:31;;;;;;;12.55;10.10;;;6.90;99.90;;;;;;4965704;28;20027;-67
2021/05/02 06:18:58;;;;;;;13.70;10.15;;;7.10;99.90;;;;;;4969553;28;20110;-66
2021/05/02 06:21:25;;;;;;;11.52;10.43;;;7.10;99.90;;;;;;4966329;28;20038;-66
2021/05/02 06:23:53;;;;;;;12.40;11.13;;;7.20;99.90;;;;;;4967078;28;20098;-72
2021/05/02 06:26:19;;;;;;;17.52;10.25;;;7.20;99.90;;;;;;4967293;28;20062;-72
2021/05/02 06:28:46;;;;;;;14.93;10.60;;;7.30;99.90;;;;;;4967610;28;20419;-72
2021/05/02 06:31:12;;;;;;;13.65;10.18;;;7.40;99.90;;;;;;4968007;28;20046;-72
2021/05/02 06:33:39;;;;;;;14.38;9.95;;;7.40;99.90;;;;;;4964723;28;20065;-73
2021/05/02 06:36:05;;;;;;;12.80;9.70;;;7.60;99.90;;;;;;4968320;28;20027;-71
2021/05/02 06:38:31;;;;;;;13.68;9.68;;;7.70;99.90;;;;;;4965301;28;20030;-73
2021/05/02 06:40:57;;;;;;;16.13;9.93;;;7.70;99.90;;;;;;4957026;28;20023;-73
2021/05/02 06:43:23;;;;;;;10.13;9.10;;;8.00;99.90;;;;;;4966733;28;20038;-73
2021/05/02 06:45:48;;;;;;;12.50;8.90;;;8.10;99.90;;;;;;4969110;28;20022;-72
2021/05/02 06:48:14;;;;;;;13.55;9.27;;;8.00;99.90;;;;;;4966548;28;20027;-72
2021/05/02 06:50:40;;;;;;;10.15;9.10;;;8.20;99.90;;;;;;4955332;28;20057;-72
2021/05/02 06:53:06;;;;;;;15.15;9.38;;;8.20;99.90;;;;;;4965152;28;20027;-73
2021/05/02 06:55:31;;;;;;;13.02;9.52;;;8.40;99.90;;;;;;4970631;28;20117;-73
2021/05/02 06:57:59;;;;;;;11.77;9.27;;;8.40;99.90;;;;;;4962195;28;20106;-74
2021/05/02 07:00:28;;;;;;;13.43;8.93;;;8.60;99.90;;;;;;4968884;28;20550;-73
2021/05/02 07:02:55;;;;;;;15.68;9.13;;;8.60;99.90;;;;;;4960769;28;20117;-73
2021/05/02 07:05:21;;;;;;;14.35;9.82;;;8.70;99.90;;;;;;4970722;28;20420;-73
2021/05/02 07:07:47;;;;;;;11.07;10.02;;;8.80;99.90;;;;;;4964278;28;20027;-72
2021/05/02 07:10:13;;;;;;;11.20;9.88;;;9.00;99.90;;;;;;4967508;28;20046;-73
2021/05/02 07:12:39;;;;;;;10.73;9.57;;;9.20;99.90;;;;;;4965254;28;20506;-73
2021/05/02 07:15:06;;;;;;;10.23;8.98;;;9.30;99.90;;;;;;4966117;28;20719;-74
2021/05/02 07:17:31;;;;;;;11.20;9.45;;;9.40;99.90;;;;;;4964652;28;20025;-73
2021/05/02 07:19:58;;;;;;;11.23;9.43;;;9.50;99.90;;;;;;4957807;28;20031;-73
2021/05/02 07:22:26;;;;;;;13.52;9.57;;;9.50;99.90;;;;;;4963221;28;20034;-73
2021/05/02 07:24:52;;;;;;;12.00;10.05;;;9.80;99.90;;;;;;4959401;28;20082;-70
2021/05/02 07:27:18;;;;;;;13.05;9.77;;;9.90;99.90;;;;;;4958127;28;20035;-65
2021/05/02 07:29:44;;;;;;;10.65;9.57;;;10.00;99.90;;;;;;4968583;28;20094;-66
2021/05/02 07:32:09;;;;;;;11.95;9.55;;;10.20;99.90;;;;;;4966709;28;20122;-66
2021/05/02 07:34:35;;;;;;;9.82;8.68;;;10.30;99.90;;;;;;4974070;28;20026;-64
2021/05/02 07:37:01;;;;;;;8.63;7.82;;;10.20;99.90;;;;;;4966793;28;20069;-64
2021/05/02 07:39:27;;;;;;;12.77;8.15;;;10.30;99.90;;;;;;4968804;28;20038;-64
2021/05/02 07:41:54;;;;;;;8.77;8.00;;;10.40;99.90;;;;;;4962883;28;20479;-64
2021/05/02 07:44:20;;;;;;;11.02;7.95;;;10.60;99.90;;;;;;4966624;28;20020;-64
2021/05/02 07:46:46;;;;;;;10.57;7.90;;;10.50;99.90;;;;;;4968151;28;20019;-64
2021/05/02 07:49:12;;;;;;;10.05;7.57;;;10.60;99.90;;;;;;4967924;28;20037;-64
2021/05/02 07:51:37;;;;;;;10.90;8.13;;;10.80;99.90;;;;;;4970274;28;20043;-64
2021/05/02 07:54:03;;;;;;;12.00;8.05;;;10.90;99.90;;;;;;4960820;28;20026;-64
2021/05/02 07:56:29;;;;;;;10.35;8.25;;;10.90;99.90;;;;;;4957093;28;20706;-63
2021/05/02 07:58:55;;;;;;;8.65;7.80;;;11.20;99.90;;;;;;4970238;28;20031;-63
2021/05/02 08:01:20;;;;;;;7.65;6.93;;;11.40;99.90;;;;;;4961797;28;20027;-64
2021/05/02 08:03:46;;;;;;;8.82;8.02;;;11.40;99.90;;;;;;4970035;28;20547;-64
2021/05/02 08:06:12;;;;;;;10.70;7.32;;;11.70;99.90;;;;;;4962004;28;20117;-63
2021/05/02 08:08:37;;;;;;;9.70;6.53;;;11.80;99.90;;;;;;4971754;28;20494;-64
2021/05/02 08:11:03;;;;;;;10.98;7.05;;;11.90;99.90;;;;;;4968817;28;20586;-65
2021/05/02 08:13:29;;;;;;;14.13;6.75;;;12.20;99.90;;;;;;4965888;28;20094;-65
2021/05/02 08:15:55;;;;;;;9.50;7.38;;;11.90;99.90;;;;;;4962126;28;20030;-65
2021/05/02 08:18:21;;;;;;;8.27;6.97;;;12.00;99.90;;;;;;4962140;28;20023;-64
2021/05/02 08:20:46;;;;;;;10.90;6.93;;;11.90;99.90;;;;;;4961181;28;20041;-64
2021/05/02 08:23:12;;;;;;;7.63;6.95;;;11.70;99.90;;;;;;4967574;28;20101;-64
2021/05/02 08:25:38;;;;;;;8.63;7.82;;;11.80;99.90;;;;;;4966921;28;20034;-65
2021/05/02 08:28:05;;;;;;;9.65;7.20;;;11.80;99.90;;;;;;4965196;28;20026;-65
2021/05/02 08:30:31;;;;;;;8.15;7.43;;;12.00;99.90;;;;;;4971087;28;20042;-64
2021/05/02 08:32:57;;;;;;;8.25;7.45;;;11.90;99.90;;;;;;4963491;28;20487;-64
2021/05/02 08:35:23;;;;;;;10.18;7.70;;;11.80;99.90;;;;;;4962589;28;20059;-64
2021/05/02 08:37:48;;;;;;;10.13;7.18;;;11.60;99.90;;;;;;4962621;28;20023;-65
2021/05/02 08:40:14;;;;;;;8.68;7.78;;;11.80;99.90;;;;;;4956335;28;20103;-64
2021/05/02 08:42:40;;;;;;;9.35;7.20;;;11.80;99.90;;;;;;4958429;28;20019;-65
2021/05/02 08:45:07;;;;;;;10.98;7.90;;;11.90;99.90;;;;;;4953360;28;20074;-65
2021/05/02 08:47:36;;;;;;;8.43;7.40;;;11.80;99.90;;;;;;4956122;28;20167;-65
2021/05/02 08:50:07;;;;;;;8.35;7.50;;;11.70;99.90;;;;;;4957694;28;20114;-64
2021/05/02 08:52:33;;;;;;;8.45;7.75;;;11.50;99.90;;;;;;4954550;28;20031;-65
2021/05/02 08:54:59;;;;;;;8.57;7.70;;;11.50;99.90;;;;;;4953347;28;20019;-65
2021/05/02 08:57:24;;;;;;;8.40;7.55;;;11.80;99.90;;;;;;4964172;28;20113;-65
2021/05/02 08:59:50;;;;;;;8.57;7.22;;;12.10;99.90;;;;;;4970102;28;20118;-64
2021/05/02 09:02:27;;;;;;;7.80;7.00;;;12.50;99.90;;;;;;4956350;28;20038;-65
2021/05/02 09:04:59;;;;;;;11.32;7.45;;;12.70;99.90;;;;;;4971633;28;20027;-65
2021/05/02 09:07:25;;;;;;;10.40;7.43;;;12.90;99.90;;;;;;4968983;28;20042;-65
2021/05/02 09:09:52;;;;;;;11.48;8.00;;;12.90;99.90;;;;;;4955936;28;20039;-65
2021/05/02 09:12:25;;;;;;;9.65;6.95;;;12.90;99.90;;;;;;4956446;28;20415;-65
2021/05/02 09:14:52;;;;;;;7.10;6.55;;;12.70;99.90;;;;;;4952934;28;20023;-65
2021/05/02 09:17:30;;;;;;;8.93;7.50;;;12.90;99.90;;;;;;4955906;28;20031;-65
2021/05/02 09:19:56;;;;;;;8.15;7.40;;;13.00;99.90;;;;;;4966654;28;20054;-65
2021/05/02 09:22:24;;;;;;;7.72;7.05;;;13.30;99.90;;;;;;4952610;28;20039;-65
2021/05/02 09:25:05;;;;;;;8.68;7.80;;;13.30;99.90;;;;;;4953661;28;20027;-65
2021/05/02 09:27:31;;;;;;;8.07;7.28;;;13.60;99.90;;;;;;4964861;28;20081;-63
2021/05/02 09:30:13;;;;;;;8.88;8.00;;;13.50;99.90;;;;;;4952300;28;20488;-63
2021/05/02 09:32:44;;;;;;;8.27;7.20;;;13.10;99.90;;;;;;4963691;28;20033;-64
2021/05/02 09:35:26;;;;;;;8.15;7.45;;;13.10;99.90;;;;;;4958170;28;20023;-63
2021/05/02 09:38:12;;;;;;;7.55;6.85;;;12.80;99.90;;;;;;4966315;28;20230;-66
2021/05/02 09:40:48;;;;;;;7.97;7.32;;;12.90;99.90;;;;;;4959297;28;20102;-64
2021/05/02 09:43:49;;;;;;;8.30;7.60;;;13.20;99.90;;;;;;4964710;28;20023;-64
2021/05/02 09:48:51;;;;;;;;;;;13.40;99.90;;;;;;4963599;28;20038;-66
2021/05/02 09:51:17;;;;;;;8.68;7.28;;;13.80;99.90;;;;;;4952601;28;20429;-66
2021/05/02 09:54:07;;;;;;;9.98;7.35;;;13.50;99.90;;;;;;4964395;28;20031;-63
2021/05/02 09:56:44;;;;;;;12.48;7.18;;;13.20;99.90;;;;;;4962968;28;20031;-63
2021/05/02 09:59:26;;;;;;;7.40;6.72;;;13.40;99.90;;;;;;4960505;28;20046;-63
2021/05/02 10:02:10;;;;;;;7.85;7.25;;;13.20;99.90;;;;;;4959998;28;20027;-65
2021/05/02 10:04:41;;;;;;;11.35;7.65;;;13.10;99.90;;;;;;4971004;28;20023;-63
2021/05/02 10:07:12;;;;;;;7.60;6.90;;;13.20;99.90;;;;;;4964343;28;20524;-63
2021/05/02 10:09:38;;;;;;;10.90;6.75;;;13.80;99.90;;;;;;4970548;28;20042;-62
2021/05/02 10:12:05;;;;;;;7.68;6.53;;;13.80;99.90;;;;;;4965645;28;20510;-65
2021/05/02 10:14:33;;;;;;;6.55;6.15;;;14.00;99.90;;;;;;4970713;28;20018;-65
2021/05/02 10:17:00;;;;;;;7.20;6.50;;;14.20;99.90;;;;;;4964962;28;20058;-63
2021/05/02 10:19:27;;;;;;;6.45;6.05;;;14.10;99.90;;;;;;4970491;28;20738;-64
2021/05/02 10:21:53;;;;;;;7.63;7.03;;;13.90;99.90;;;;;;4966674;28;20142;-63
2021/05/02 10:24:19;;;;;;;8.43;6.50;;;13.60;99.90;;;;;;4952013;28;20114;-64
2021/05/02 10:26:45;;;;;;;6.97;6.25;;;14.00;99.90;;;;;;4955831;28;20450;-65
2021/05/02 10:29:11;;;;;;;6.20;5.60;;;14.20;99.90;;;;;;4956223;28;20031;-65
2021/05/02 10:31:41;;;;;;;7.30;6.65;;;14.90;99.90;;;;;;4966670;28;20405;-66
2021/05/02 10:34:27;;;;;;;6.68;5.97;;;15.40;99.90;;;;;;4965167;28;20055;-65
2021/05/02 10:37:22;;;;;;;7.97;5.82;;;15.20;99.90;;;;;;4966264;28;20076;-65
2021/05/02 10:40:01;;;;;;;5.82;5.32;;;14.70;99.90;;;;;;4968320;28;20018;-65
2021/05/02 10:42:39;;;;;;;4.97;4.57;;;14.70;99.90;;;;;;4962993;28;20038;-65
2021/05/02 10:45:28;;;;;;;5.78;5.30;;;14.40;99.90;;;;;;4969790;28;20019;-65
2021/05/02 10:47:57;;;;;;;5.90;5.40;;;14.80;99.90;;;;;;4964817;28;20611;-66
2021/05/02 10:50:28;;;;;;;4.97;4.57;;;14.90;99.90;;;;;;4970687;28;20042;-65
2021/05/02 10:53:05;;;;;;;5.93;5.10;;;14.40;99.90;;;;;;4964535;28;20031;-65
2021/05/02 10:55:55;;;;;;;8.45;4.75;;;14.50;99.90;;;;;;4970899;28;20041;-66
2021/05/02 10:58:26;;;;;;;4.63;4.30;;;14.60;99.90;;;;;;4961346;28;20510;-66
2021/05/02 11:01:00;;;;;;;7.45;4.82;;;15.40;99.90;;;;;;4969046;28;20388;-65
2021/05/02 11:03:38;;;;;;;5.20;4.70;;;15.20;99.90;;;;;;4960958;28;20034;-65
2021/05/02 11:06:05;;;;;;;4.72;4.32;;;15.70;99.90;;;;;;4967562;28;20027;-65
2021/05/02 11:08:47;;;;;;;4.47;3.05;;;15.50;99.90;;;;;;4966075;28;20420;-65
2021/05/02 11:11:36;;;;;;;3.03;2.72;;;15.50;99.90;;;;;;4957182;28;20400;-65
2021/05/02 11:14:08;;;;;;;2.83;2.63;;;15.30;99.90;;;;;;4972087;28;20117;-66
2021/05/02 11:16:53;;;;;;;3.17;2.90;;;15.60;99.90;;;;;;4967368;28;20034;-66
2021/05/02 11:19:35;;;;;;;3.50;3.20;;;16.00;99.90;;;;;;4954797;28;20115;-66
2021/05/02 11:22:09;;;;;;;5.00;3.30;;;16.40;99.90;;;;;;4961207;28;20084;-66
2021/05/02 11:27:34;;;;;;;7.07;3.22;;;15.90;99.90;;;;;;4959916;28;20459;-65
2021/05/02 11:30:07;;;;;;;2.60;2.40;;;16.10;99.90;;;;;;4970969;28;20027;-66
2021/05/02 11:32:40;;;;;;;2.25;1.95;;;16.80;99.90;;;;;;4961448;28;20054;-65
2021/05/02 11:35:06;;;;;;;2.72;2.47;;;16.80;99.90;;;;;;4956061;28;20414;-65
2021/05/02 11:37:50;;;;;;;2.05;1.95;;;16.60;99.90;;;;;;4969100;28;20027;-65
2021/05/02 11:40:25;;;;;;;2.08;1.85;;;17.20;99.90;;;;;;4968236;28;20022;-65
2021/05/02 11:43:02;;;;;;;3.42;2.60;;;17.80;99.90;;;;;;4966200;28;20538;-65
2021/05/02 11:45:32;;;;;;;4.28;3.05;;;17.10;99.60;;;;;;4973030;28;20034;-65
2021/05/02 11:48:01;;;;;;;5.18;2.90;;;16.00;99.90;;;;;;4966751;28;20053;-65
2021/05/02 11:50:27;;;;;;;3.13;2.65;;;16.20;99.90;;;;;;4970877;28;20392;-68
2021/05/02 11:52:54;;;;;;;3.75;3.15;;;16.40;99.90;;;;;;4966918;28;20026;-65
2021/05/02 11:55:37;;;;;;;3.72;3.40;;;16.30;99.90;;;;;;4967663;28;20019;-65
2021/05/02 11:58:06;;;;;;;3.28;2.97;;;16.00;99.90;;;;;;4967029;28;20042;-65
2021/05/02 12:00:47;;;;;;;2.78;2.58;;;17.00;99.90;;;;;;4972989;28;20546;-65
2021/05/02 12:03:17;;;;;;;4.13;2.65;;;17.70;99.90;;;;;;4968120;28;20039;-65
2021/05/02 12:05:54;;;;;;;3.92;2.85;;;17.70;99.90;;;;;;4970993;28;20019;-65
2021/05/02 12:08:27;;;;;;;4.65;3.30;;;17.60;99.90;;;;;;4972602;28;20025;-65
2021/05/02 12:11:06;;;;;;;7.85;3.03;;;18.00;99.90;;;;;;4971425;28;20051;-65
2021/05/02 12:13:45;;;;;;;3.05;2.85;;;17.50;99.90;;;;;;4969886;28;20455;-65
2021/05/02 12:16:10;;;;;;;2.72;2.53;;;18.00;99.90;;;;;;4971084;28;20027;-65
2021/05/02 12:19:01;;;;;;;3.15;2.88;;;18.40;99.90;;;;;;4967964;28;20142;-64
2021/05/02 12:21:38;;;;;;;4.13;3.00;;;18.60;99.90;;;;;;4953099;28;20035;-65
2021/05/02 12:24:07;;;;;;;3.30;2.90;;;18.00;95.80;;;;;;4966574;28;20027;-65
2021/05/02 12:26:34;;;;;;;2.58;2.10;;;17.60;97.40;;;;;;4968452;28;20023;-64
2021/05/02 12:29:07;;;;;;;2.75;2.35;;;17.20;99.90;;;;;;4970240;28;20486;-65
2021/05/02 12:31:34;;;;;;;3.72;2.40;;;16.60;99.10;;;;;;4966257;28;20043;-65
2021/05/02 12:34:00;;;;;;;2.88;2.17;;;16.90;99.30;;;;;;4972250;28;20562;-65
2021/05/02 12:36:28;;;;;;;3.33;2.25;;;17.80;99.90;;;;;;4966759;28;20110;-65
2021/05/02 12:39:08;;;;;;;2.25;1.98;;;18.70;99.30;;;;;;4971332;28;20029;-65
2021/05/02 12:41:36;;;;;;;2.00;1.80;;;18.70;98.50;;;;;;4970029;28;20042;-66
2021/05/02 12:44:22;;;;;;;3.63;1.90;;;18.90;98.20;;;;;;4964277;28;20039;-65
2021/05/02 12:46:56;;;;;;;2.05;1.85;;;18.50;94.60;;;;;;4966085;28;20024;-65
2021/05/02 12:49:27;;;;;;;2.47;1.73;;;18.60;98.60;;;;;;4972042;28;20042;-65
2021/05/02 12:51:58;;;;;;;2.15;1.42;;;18.60;95.00;;;;;;4965539;28;20535;-65
2021/05/02 12:54:26;;;;;;;1.92;1.70;;;19.60;95.30;;;;;;4972153;28;20491;-65
2021/05/02 12:57:06;;;;;;;2.33;1.60;;;19.60;93.70;;;;;;4968124;28;20093;-65
2021/05/02 12:59:43;;;;;;;1.98;1.50;;;19.80;97.60;;;;;;4969928;28;20046;-65
2021/05/02 13:02:15;;;;;;;3.88;1.77;;;19.80;93.50;;;;;;4966172;28;20023;-65
2021/05/02 13:05:01;;;;;;;1.77;1.67;;;20.00;96.00;;;;;;4970004;28;20027;-65
2021/05/02 13:07:34;;;;;;;2.10;1.60;;;20.10;95.80;;;;;;4964195;28;20030;-65